createdAt,value
2022-09-15T00:02:45.329Z,99120.67
2022-09-15T00:05:48.178Z,99119.06
2022-09-15T00:08:50.956Z,99124.50
2022-09-15T00:11:56.162Z,99125.58
2022-09-15T00:14:58.757Z,99122.30
2022-09-15T00:18:02.212Z,99123.13
2022-09-15T00:21:06.194Z,99122.84
2022-09-15T00:24:09.300Z,99117.38
2022-09-15T00:27:11.951Z,99116.28
2022-09-15T00:30:14.677Z,99122.29
2022-09-15T00:33:17.684Z,99127.72
2022-09-15T00:36:21.179Z,99132.08
2022-09-15T00:39:23.855Z,99129.64
2022-09-15T00:42:26.504Z,99126.36
2022-09-15T00:45:29.203Z,99117.08
2022-09-15T00:48:32.547Z,99119.25
2022-09-15T00:51:38.490Z,99117.89
2022-09-15T00:54:43.949Z,99123.61
2022-09-15T00:57:49.738Z,99123.86
2022-09-15T01:00:55.078Z,99122.79
2022-09-15T01:03:59.101Z,99113.51
2022-09-15T01:07:03.791Z,99116.20
2022-09-15T01:10:08.332Z,99119.48
2022-09-15T01:13:12.224Z,99116.46
2022-09-15T01:19:59.851Z,99100.91
2022-09-15T01:23:15.515Z,99112.34
2022-09-15T01:26:37.452Z,99102.79
2022-09-15T01:29:52.533Z,99110.16
2022-09-15T01:33:12.098Z,99109.05
2022-09-15T01:36:18.170Z,99107.69
2022-09-15T01:39:23.738Z,99111.19
2022-09-15T01:42:27.934Z,99112.29
2022-09-15T01:45:32.835Z,99110.38
2022-09-15T01:48:36.194Z,99117.73
2022-09-15T01:51:39.192Z,99108.20
2022-09-15T01:54:45.285Z,99108.45
2022-09-15T01:57:49.125Z,99104.92
2022-09-15T02:00:57.082Z,99108.71
2022-09-15T02:04:05.244Z,99110.63
2022-09-15T02:07:12.807Z,99112.80
2022-09-15T02:10:19.665Z,99114.42
2022-09-15T02:13:27.423Z,99121.78
2022-09-15T02:16:33.951Z,99118.80
2022-09-15T02:19:40.503Z,99110.37
2022-09-15T02:22:47.266Z,99108.71
2022-09-15T02:25:54.919Z,99114.70
2022-09-15T02:29:00.739Z,99111.98
2022-09-15T02:32:07.422Z,99111.14
2022-09-15T02:35:11.159Z,99115.78
2022-09-15T02:38:14.161Z,99111.43
2022-09-15T02:41:16.752Z,99119.05
2022-09-15T02:44:21.285Z,99114.67
2022-09-15T02:47:25.280Z,99105.94
2022-09-15T02:50:27.990Z,99111.13
2022-09-15T02:53:31.213Z,99108.91
2022-09-15T02:56:33.920Z,99105.07
2022-09-15T02:59:51.416Z,99099.61
2022-09-15T03:02:54.372Z,99106.39
2022-09-15T03:06:15.259Z,99102.30
2022-09-15T03:09:18.909Z,99102.84
2022-09-15T03:12:21.412Z,99109.89
2022-09-15T03:15:25.170Z,99103.08
2022-09-15T03:18:27.730Z,99093.50
2022-09-15T03:21:30.826Z,99105.75
2022-09-15T03:24:33.539Z,99101.66
2022-09-15T03:27:36.282Z,99092.94
2022-09-15T03:30:38.960Z,99095.06
2022-09-15T03:33:41.744Z,99099.95
2022-09-15T03:36:44.304Z,99098.05
2022-09-15T03:39:48.084Z,99097.56
2022-09-15T03:42:50.878Z,99101.66
2022-09-15T03:45:53.682Z,99098.12
2022-09-15T03:48:56.954Z,99101.58
2022-09-15T03:51:59.668Z,99107.00
2022-09-15T03:55:02.347Z,99102.09
2022-09-15T03:58:06.803Z,99106.98
2022-09-15T04:01:09.559Z,99109.17
2022-09-15T04:04:12.803Z,99111.09
2022-09-15T04:07:15.346Z,99114.94
2022-09-15T04:10:21.192Z,99113.11
2022-09-15T04:13:28.442Z,99112.88
2022-09-15T04:16:31.680Z,99116.20
2022-09-15T04:19:34.635Z,99113.79
2022-09-15T04:22:37.196Z,99114.36
2022-09-15T04:25:39.908Z,99115.22
2022-09-15T04:28:43.500Z,99111.43
2022-09-15T04:31:46.542Z,99110.37
2022-09-15T04:34:49.124Z,99115.02
2022-09-15T04:37:54.026Z,99109.05
2022-09-15T04:40:56.967Z,99109.61
2022-09-15T04:43:59.985Z,99119.45
2022-09-15T04:47:02.748Z,99111.56
2022-09-15T04:50:06.312Z,99114.58
2022-09-15T04:53:09.207Z,99119.22
2022-09-15T04:56:13.269Z,99116.79
2022-09-15T04:59:16.612Z,99119.52
2022-09-15T05:02:19.260Z,99123.34
2022-09-15T05:05:22.550Z,99111.62
2022-09-15T05:08:25.313Z,99115.19
2022-09-15T05:11:28.000Z,99117.91
2022-09-15T05:14:31.258Z,99112.73
2022-09-15T05:17:34.158Z,99107.58
2022-09-15T05:20:36.983Z,99109.48
2022-09-15T05:23:39.649Z,99110.30
2022-09-15T05:26:42.464Z,99116.34
2022-09-15T05:29:46.521Z,99114.15
2022-09-15T05:32:49.150Z,99122.88
2022-09-15T05:35:52.695Z,99119.87
2022-09-15T05:38:58.942Z,99116.58
2022-09-15T05:42:01.753Z,99117.37
2022-09-15T05:45:04.841Z,99117.34
2022-09-15T05:48:10.201Z,99115.66
2022-09-15T05:51:13.697Z,99121.09
2022-09-15T05:54:16.397Z,99119.67
2022-09-15T05:57:18.985Z,99124.83
2022-09-15T06:00:22.265Z,99119.31
2022-09-15T06:03:30.014Z,99124.74
2022-09-15T06:06:33.583Z,99124.72
2022-09-15T06:09:36.354Z,99120.81
2022-09-15T06:12:39.060Z,99122.40
2022-09-15T06:15:41.977Z,99127.81
2022-09-15T06:18:45.654Z,99124.16
2022-09-15T06:21:48.609Z,99122.75
2022-09-15T06:24:51.687Z,99118.86
2022-09-15T06:27:54.352Z,99125.35
2022-09-15T06:30:57.345Z,99133.45
2022-09-15T06:34:09.269Z,99125.89
2022-09-15T06:37:11.974Z,99124.64
2022-09-15T06:40:14.972Z,99123.69
2022-09-15T06:43:17.552Z,99119.22
2022-09-15T06:46:21.216Z,99127.86
2022-09-15T06:49:25.457Z,99126.86
2022-09-15T06:52:28.027Z,99122.34
2022-09-15T06:55:30.598Z,99127.62
2022-09-15T06:58:34.530Z,99137.50
2022-09-15T07:01:37.622Z,99129.34
2022-09-15T07:04:40.386Z,99136.30
2022-09-15T07:07:43.137Z,99136.14
2022-09-15T07:10:50.447Z,99134.20
2022-09-15T07:13:53.044Z,99139.33
2022-09-15T07:16:56.044Z,99142.75
2022-09-15T07:19:59.947Z,99126.52
2022-09-15T07:23:03.170Z,99120.38
2022-09-15T07:26:09.913Z,99129.80
2022-09-15T07:29:13.364Z,99129.66
2022-09-15T07:32:16.165Z,99131.73
2022-09-15T07:35:21.153Z,99129.16
2022-09-15T07:38:23.822Z,99131.14
2022-09-15T07:41:27.306Z,99139.22
2022-09-15T07:44:29.859Z,99132.98
2022-09-15T07:47:32.501Z,99139.63
2022-09-15T07:50:35.109Z,99137.11
2022-09-15T07:53:37.682Z,99145.98
2022-09-15T07:56:41.167Z,99142.84
2022-09-15T07:59:43.928Z,99138.26
2022-09-15T08:02:46.785Z,99146.54
2022-09-15T08:05:49.488Z,99147.05
2022-09-15T08:08:55.234Z,99154.50
2022-09-15T08:12:02.380Z,99149.29
2022-09-15T08:15:05.444Z,99156.81
2022-09-15T08:18:08.217Z,99136.23
2022-09-15T08:21:12.043Z,99139.28
2022-09-15T08:24:14.919Z,99147.53
2022-09-15T08:27:17.612Z,99150.91
2022-09-15T08:30:21.432Z,99153.17
2022-09-15T08:33:24.089Z,99146.07
2022-09-15T08:36:27.219Z,99138.63
2022-09-15T08:39:29.806Z,99143.42
2022-09-15T08:42:33.123Z,99144.02
2022-09-15T08:45:42.035Z,99151.17
2022-09-15T08:48:46.982Z,99152.06
2022-09-15T08:51:50.617Z,99141.13
2022-09-15T08:54:55.119Z,99162.43
2022-09-15T08:57:57.749Z,99141.34
2022-09-15T09:01:02.970Z,99150.03
2022-09-15T09:04:17.952Z,99143.58
2022-09-15T09:07:27.654Z,99158.44
2022-09-15T09:10:35.812Z,99138.66
2022-09-15T09:13:41.215Z,99139.53
2022-09-15T09:16:51.017Z,99145.24
2022-09-15T09:20:02.892Z,99145.55
2022-09-15T09:23:10.462Z,99152.57
2022-09-15T09:26:13.794Z,99151.02
2022-09-15T09:29:17.972Z,99145.67
2022-09-15T09:32:23.942Z,99141.06
2022-09-15T09:35:31.799Z,99141.44
2022-09-15T09:38:36.693Z,99150.28
2022-09-15T09:41:41.198Z,99143.50
2022-09-15T09:44:44.406Z,99136.66
2022-09-15T09:47:47.181Z,99139.81
2022-09-15T09:50:50.420Z,99138.71
2022-09-15T09:53:53.785Z,99135.64
2022-09-15T09:56:57.455Z,99126.21
2022-09-15T10:00:00.087Z,99133.09
2022-09-15T10:03:10.770Z,99123.82
2022-09-15T10:06:14.255Z,99125.87
2022-09-15T10:09:17.804Z,99127.13
2022-09-15T10:12:25.397Z,99118.38
2022-09-15T10:15:29.578Z,99114.45
2022-09-15T10:18:33.401Z,99116.25
2022-09-15T10:21:39.197Z,99101.77
2022-09-15T10:24:42.187Z,99115.45
2022-09-15T10:27:44.902Z,99113.72
2022-09-15T10:31:01.417Z,99108.38
2022-09-15T10:34:23.719Z,99105.46
2022-09-15T10:37:29.525Z,99104.80
2022-09-15T10:40:34.302Z,99106.73
2022-09-15T10:43:43.103Z,99105.77
2022-09-15T10:46:52.939Z,99107.55
2022-09-15T10:49:59.910Z,99095.59
2022-09-15T10:53:09.845Z,99110.36
2022-09-15T10:56:20.892Z,99110.71
2022-09-15T10:59:34.339Z,99110.84
2022-09-15T11:02:50.563Z,99120.20
2022-09-15T11:06:01.130Z,99108.87
2022-09-15T11:09:13.604Z,99104.31
2022-09-15T11:12:27.060Z,99113.39
2022-09-15T11:15:42.301Z,99124.72
2022-09-15T11:19:02.109Z,99112.64
2022-09-15T11:22:08.454Z,99134.89
2022-09-15T11:25:15.039Z,99114.41
2022-09-15T11:28:20.179Z,99118.01
2022-09-15T11:31:26.325Z,99116.76
2022-09-15T11:34:31.990Z,99119.36
2022-09-15T11:37:38.493Z,99125.37
2022-09-15T11:40:46.601Z,99119.84
2022-09-15T11:43:55.179Z,99124.25
2022-09-15T11:47:09.722Z,99128.67
2022-09-15T11:50:15.394Z,99107.55
2022-09-15T11:53:21.912Z,99134.38
2022-09-15T11:56:29.063Z,99133.39
2022-09-15T11:59:39.558Z,99150.02
2022-09-15T12:02:43.923Z,99139.92
2022-09-15T12:05:49.910Z,99131.63
2022-09-15T12:08:56.596Z,99137.16
2022-09-15T12:12:01.731Z,99148.08
2022-09-15T12:15:05.444Z,99140.27
2022-09-15T12:18:34.563Z,99144.64
2022-09-15T12:21:39.374Z,99127.71
2022-09-15T12:24:45.561Z,99114.16
2022-09-15T12:28:02.544Z,99124.90
2022-09-15T12:31:12.821Z,99135.64
2022-09-15T12:34:33.193Z,99129.73
2022-09-15T12:37:39.471Z,99141.29
2022-09-15T12:40:42.464Z,99135.42
2022-09-15T12:43:51.495Z,99166.22
2022-09-15T12:46:55.600Z,99166.73
2022-09-15T12:50:01.917Z,99172.75
2022-09-15T12:53:19.205Z,99180.59
2022-09-15T12:56:24.091Z,99170.83
2022-09-15T12:59:28.429Z,99160.90
2022-09-15T13:02:42.912Z,99170.31
2022-09-15T13:06:06.493Z,99159.55
2022-09-15T13:09:24.460Z,99157.42
2022-09-15T13:12:31.587Z,99145.58
2022-09-15T13:15:36.135Z,99149.52
2022-09-15T13:18:40.779Z,99143.30
2022-09-15T13:21:45.999Z,99146.94
2022-09-15T13:24:55.334Z,99138.73
2022-09-15T13:28:01.527Z,99135.55
2022-09-15T13:31:10.119Z,99141.20
2022-09-15T13:38:21.757Z,99147.79
2022-09-15T13:41:32.303Z,99141.22
2022-09-15T13:45:01.794Z,99138.47
2022-09-15T13:48:20.851Z,99128.70
2022-09-15T13:51:24.928Z,99129.86
2022-09-15T13:54:27.494Z,99142.52
2022-09-15T14:01:00.461Z,99124.77
2022-09-15T14:04:06.324Z,99132.39
2022-09-15T14:07:20.973Z,99140.75
2022-09-15T14:10:25.302Z,99131.44
2022-09-15T14:13:29.176Z,99115.66
2022-09-15T14:16:33.743Z,99116.14
2022-09-15T14:19:37.686Z,99106.53
2022-09-15T14:22:44.608Z,99100.69
2022-09-15T14:25:47.306Z,99097.61
2022-09-15T14:28:51.177Z,99107.02
2022-09-15T14:31:59.376Z,99104.74
2022-09-15T14:35:06.005Z,99101.79
2022-09-15T14:38:19.499Z,99096.86
2022-09-15T14:41:22.206Z,99098.79
2022-09-15T14:48:00.702Z,99094.42
2022-09-15T14:51:05.266Z,99100.16
2022-09-15T14:54:16.003Z,99098.39
2022-09-15T14:57:20.330Z,99102.63
2022-09-15T15:00:26.517Z,99098.17
2022-09-15T15:03:33.871Z,99092.20
2022-09-15T15:06:39.226Z,99088.94
2022-09-15T15:09:44.092Z,99099.36
2022-09-15T15:12:49.738Z,99089.73
2022-09-15T15:15:52.576Z,99083.78
2022-09-15T15:18:56.532Z,99082.82
2022-09-15T15:22:07.096Z,99092.27
2022-09-15T15:25:22.052Z,99087.71
2022-09-15T15:28:31.829Z,99084.78
2022-09-15T15:31:39.314Z,99077.64
2022-09-15T15:34:48.690Z,99080.55
2022-09-15T15:38:00.728Z,99081.66
2022-09-15T15:41:04.375Z,99085.69
2022-09-15T15:44:25.141Z,99083.40
2022-09-15T15:47:28.912Z,99081.77
2022-09-15T15:50:32.147Z,99079.57
2022-09-15T15:53:34.992Z,99078.28
2022-09-15T15:56:38.128Z,99083.00
2022-09-15T15:59:41.055Z,99081.70
2022-09-15T16:02:44.004Z,99074.03
2022-09-15T16:05:48.014Z,99079.55
2022-09-15T16:08:50.719Z,99077.81
2022-09-15T16:11:53.487Z,99081.90
2022-09-15T16:14:56.976Z,99079.21
2022-09-15T16:18:00.257Z,99080.52
2022-09-15T16:21:02.922Z,99085.77
2022-09-15T16:24:06.581Z,99086.58
2022-09-15T16:27:12.980Z,99082.97
2022-09-15T16:30:15.666Z,99083.52
2022-09-15T16:33:18.976Z,99091.25
2022-09-15T16:36:21.667Z,99091.63
2022-09-15T16:39:24.264Z,99094.59
2022-09-15T16:42:27.116Z,99095.30
2022-09-15T16:45:35.136Z,99085.91
2022-09-15T16:48:42.589Z,99084.36
2022-09-15T16:51:46.223Z,99088.56
2022-09-15T16:54:49.225Z,99093.30
2022-09-15T16:57:52.235Z,99092.16
2022-09-15T17:00:55.547Z,99092.69
2022-09-15T17:03:58.809Z,99095.96
2022-09-15T17:07:01.628Z,99092.91
2022-09-15T17:10:05.501Z,99099.70
2022-09-15T17:13:09.581Z,99091.16
2022-09-15T17:16:14.907Z,99097.33
2022-09-15T17:22:49.620Z,99102.78
2022-09-15T17:25:58.184Z,99100.14
2022-09-15T17:29:01.437Z,99099.42
2022-09-15T17:35:35.730Z,99097.95
2022-09-15T18:04:38.770Z,99113.84
2022-09-15T18:07:41.561Z,99110.58
2022-09-15T18:10:47.243Z,99113.61
2022-09-15T18:13:49.820Z,99122.63
2022-09-15T18:16:52.489Z,99115.51
2022-09-15T18:19:55.232Z,99124.25
2022-09-15T18:22:58.475Z,99129.98
2022-09-15T18:26:06.911Z,99119.31
2022-09-15T18:29:12.039Z,99126.93
2022-09-15T18:32:15.394Z,99131.58
2022-09-15T18:35:19.086Z,99125.80
2022-09-15T18:38:22.358Z,99128.48
2022-09-15T18:41:27.294Z,99127.66
2022-09-15T18:44:31.141Z,99122.95
2022-09-15T18:47:33.913Z,99125.95
2022-09-15T18:50:37.027Z,99143.45
2022-09-15T18:53:39.715Z,99134.68
2022-09-15T18:56:42.614Z,99137.37
2022-09-15T18:59:46.652Z,99153.75
2022-09-15T19:02:49.593Z,99154.81
2022-09-15T19:05:52.395Z,99152.61
2022-09-15T19:08:55.486Z,99156.19
2022-09-15T19:11:58.192Z,99163.88
2022-09-15T19:15:00.883Z,99161.20
2022-09-15T19:18:03.693Z,99170.02
2022-09-15T19:21:07.646Z,99161.63
2022-09-15T19:24:10.259Z,99161.95
2022-09-15T19:27:12.931Z,99156.48
2022-09-15T19:30:18.547Z,99155.11
2022-09-15T19:33:21.297Z,99152.37
2022-09-15T19:36:28.336Z,99157.56
2022-09-15T19:39:32.040Z,99167.16
2022-09-15T19:42:34.708Z,99166.34
2022-09-15T19:45:41.629Z,99162.20
2022-09-15T19:48:49.370Z,99158.11
2022-09-15T19:51:55.062Z,99155.41
2022-09-15T19:54:57.917Z,99158.16
2022-09-15T19:58:00.941Z,99160.39
2022-09-15T20:01:03.806Z,99167.52
2022-09-15T20:07:27.742Z,99166.16
2022-09-15T20:10:30.748Z,99163.70
2022-09-15T20:13:38.510Z,99165.89
2022-09-15T20:16:41.429Z,99173.55
2022-09-15T20:19:44.328Z,99181.49
2022-09-15T20:22:46.868Z,99178.52
2022-09-15T20:25:56.436Z,99180.19
2022-09-15T20:29:00.973Z,99188.67
2022-09-15T20:32:05.009Z,99183.77
2022-09-15T20:35:08.132Z,99176.13
2022-09-15T20:38:10.963Z,99190.61
2022-09-15T20:41:15.005Z,99190.89
2022-09-15T20:44:17.894Z,99188.72
2022-09-15T20:47:20.733Z,99182.97
2022-09-15T20:50:23.312Z,99178.07
2022-09-15T20:53:26.139Z,99173.95
2022-09-15T20:56:30.228Z,99178.62
2022-09-15T20:59:32.915Z,99185.42
2022-09-15T21:02:35.748Z,99186.23
2022-09-15T21:05:38.596Z,99185.98
2022-09-15T21:08:41.681Z,99189.51
2022-09-15T21:11:44.499Z,99189.52
2022-09-15T21:14:47.171Z,99185.11
2022-09-15T21:17:49.779Z,99185.66
2022-09-15T21:20:56.295Z,99194.66
2022-09-15T21:24:01.231Z,99191.44
2022-09-15T21:27:28.119Z,99181.88
2022-09-15T21:30:32.149Z,99185.16
2022-09-15T21:33:35.393Z,99196.08
2022-09-15T21:36:38.880Z,99190.06
2022-09-15T21:39:41.726Z,99189.47
2022-09-15T21:42:44.551Z,99184.27
2022-09-15T21:45:47.415Z,99191.11
2022-09-15T21:48:50.156Z,99183.16
2022-09-15T21:51:52.989Z,99194.04
2022-09-15T21:54:55.631Z,99189.91
2022-09-15T21:57:58.478Z,99187.99
2022-09-15T22:01:09.432Z,99192.59
2022-09-15T22:04:12.144Z,99195.83
2022-09-15T22:07:18.508Z,99196.89
2022-09-15T22:10:21.332Z,99193.87
2022-09-15T22:13:25.341Z,99193.57
2022-09-15T22:16:28.085Z,99208.30
2022-09-15T22:19:30.863Z,99201.48
2022-09-15T22:22:33.588Z,99201.99
2022-09-15T22:25:36.370Z,99202.79
2022-09-15T22:28:39.860Z,99210.11
2022-09-15T22:31:42.649Z,99218.27
2022-09-15T22:34:45.505Z,99210.89
2022-09-15T22:37:48.294Z,99211.40
2022-09-15T22:40:51.225Z,99214.10
2022-09-15T22:43:53.913Z,99202.90
2022-09-15T22:46:56.635Z,99205.88
2022-09-15T22:49:59.273Z,99205.88
2022-09-15T22:53:01.994Z,99213.23
2022-09-15T22:56:06.061Z,99203.13
2022-09-15T22:59:09.037Z,99208.53
2022-09-15T23:02:14.987Z,99207.16
2022-09-15T23:05:17.919Z,99220.47
2022-09-15T23:08:20.569Z,99225.64
2022-09-15T23:11:26.433Z,99232.41
2022-09-15T23:14:29.149Z,99222.30
2022-09-15T23:17:31.899Z,99231.22
2022-09-15T23:20:34.540Z,99234.45
2022-09-15T23:23:38.487Z,99227.91
2022-09-15T23:26:41.472Z,99231.94
2022-09-15T23:29:46.957Z,99235.76
2022-09-15T23:32:51.008Z,99234.95
2022-09-15T23:35:54.690Z,99220.77
2022-09-15T23:38:57.773Z,99234.95
2022-09-15T23:42:03.079Z,99233.29
2022-09-15T23:45:06.918Z,99228.38
2022-09-15T23:48:10.017Z,99228.06
2022-09-15T23:51:12.683Z,99233.44
2022-09-15T23:54:15.691Z,99229.03
2022-09-15T23:57:18.481Z,99233.09
